»·PEaware :: WAT202 KLAX-PHKO

WAT202 :: KLAX-PHKO

FLIGHT INFORMATION

Flight Status: Arrived
Operator:
Walker Air Transport
More flights by this operator :: More flights under this callsign
Pilot: Nick L. (7253)
Aircraft: AÉROSPATIALE-BAC CONCORDE
(CONC)
More flights by this aircraft type
Origin: KLAX Los Angeles Intl
United States
Destination: PHKO Kona Intl At Keahole
United States
More flights between these airports :: More routes between these airports
Route: VTU8 DINTY DUETS R576 DENNS ONOHI VECKI9
File this flight plan on PilotEdge
Remarks:
Altitude:
(Current/Filed)
60,000ft
Speed:
(Current/Filed)
999kts
Departed: 11-Mar-21 01:16 PM
Arrived: 11-Mar-21 03:40 PM
Distance/Time
Traveled:
2172nm/2:23
Distance/Time
To Go:
Arrived

Flight Plot

Page will automatically refresh every two minutes.

Flight plan parsing failed; only flown route is shown


Map Options




Map Legend


Flown Route
Filed Route
Departure Airport
Arrival Airport
Navaid (VOR, NDB)
Fix

Horizontal Profiles

Position Reports

Time Latitude Longitude Heading Altitude Ground
Speed
11-Mar-21 12:45 33.943829 -118.430008 83 117ft 0kts
11-Mar-21 12:46 33.943829 -118.430008 83 117ft 0kts
11-Mar-21 12:47 33.943829 -118.430008 83 117ft 0kts
11-Mar-21 12:48 33.943829 -118.430008 83 117ft 0kts
11-Mar-21 12:49 33.943829 -118.430008 83 117ft 0kts
11-Mar-21 12:50 33.943829 -118.430008 83 117ft 0kts
11-Mar-21 12:51 33.943829 -118.430008 83 117ft 0kts
11-Mar-21 12:52 33.943829 -118.430008 83 117ft 0kts
11-Mar-21 12:53 33.943829 -118.430008 83 117ft 0kts
11-Mar-21 12:54 33.943829 -118.430008 83 117ft 0kts
11-Mar-21 12:55 33.943829 -118.430008 83 117ft 0kts
11-Mar-21 12:56 33.943829 -118.430008 83 117ft 0kts
11-Mar-21 12:57 33.943829 -118.430008 83 117ft 0kts
11-Mar-21 12:58 33.943829 -118.430008 83 117ft 0kts
11-Mar-21 12:59 33.943829 -118.430008 83 117ft 0kts
11-Mar-21 13:00 33.943829 -118.430008 83 117ft 0kts
11-Mar-21 13:01 33.943829 -118.430008 83 117ft 0kts
11-Mar-21 13:02 33.943829 -118.430008 83 117ft 0kts
11-Mar-21 13:03 33.943762 -118.430326 64 117ft 2kts
11-Mar-21 13:04 33.943307 -118.430799 16 117ft 2kts
11-Mar-21 13:05 33.942963 -118.430824 352 117ft 0kts
11-Mar-21 13:06 33.942963 -118.430824 352 117ft 0kts
11-Mar-21 13:07 33.942963 -118.430824 352 117ft 0kts
11-Mar-21 13:08 33.944005 -118.430987 352 117ft 9kts
11-Mar-21 13:09 33.946157 -118.429032 84 117ft 14kts
11-Mar-21 13:10 33.946745 -118.423187 78 117ft 17kts
11-Mar-21 13:11 33.947390 -118.417121 83 117ft 21kts
11-Mar-21 13:12 33.948401 -118.408458 83 117ft 28kts
11-Mar-21 13:13 33.949187 -118.400948 73 117ft 0kts
11-Mar-21 13:14 33.950247 -118.401416 251 117ft 10kts
11-Mar-21 13:15 33.945171 -118.456092 264 2004ft 236kts
11-Mar-21 13:16 33.936991 -118.539730 263 4087ft 250kts
11-Mar-21 13:17 33.942218 -118.624211 297 7470ft 264kts
11-Mar-21 13:18 33.975863 -118.706245 294 10687ft 272kts
11-Mar-21 13:19 34.015516 -118.804271 295 12879ft 370kts
11-Mar-21 13:20 34.063342 -118.922134 294 16493ft 391kts
11-Mar-21 13:21 34.113868 -119.046552 294 20693ft 418kts
11-Mar-21 13:22 34.150717 -119.194580 277 25067ft 499kts
11-Mar-21 13:23 34.133487 -119.367869 255 28154ft 516kts
11-Mar-21 13:24 34.100914 -119.540419 256 29179ft 532kts
11-Mar-21 13:25 34.066313 -119.722404 255 34077ft 571kts
11-Mar-21 13:26 34.027662 -119.924277 256 36616ft 636kts
11-Mar-21 13:27 33.987695 -120.131153 256 38332ft 691kts
11-Mar-21 13:28 33.940088 -120.375038 256 40269ft 777kts
11-Mar-21 13:29 33.884240 -120.657543 256 44420ft 938kts
11-Mar-21 13:30 33.819609 -120.979874 256 47422ft 993kts
11-Mar-21 13:31 33.750749 -121.318417 256 49254ft 1043kts
11-Mar-21 13:32 33.677569 -121.672727 255 50923ft 1086kts
11-Mar-21 13:33 33.601074 -122.037340 255 52376ft 1118kts
11-Mar-21 13:34 33.521915 -122.408736 255 53492ft 1124kts
11-Mar-21 13:35 33.443751 -122.780452 255 54300ft 1126kts
11-Mar-21 13:36 33.366070 -123.153251 255 54889ft 1128kts
11-Mar-21 13:37 33.287001 -123.526746 255 55303ft 1129kts
11-Mar-21 13:38 33.210383 -123.883082 255 55596ft 1130kts
11-Mar-21 13:40 33.129267 -124.254673 255 55822ft 1131kts
11-Mar-21 13:41 33.046508 -124.627658 255 55980ft 1132kts
11-Mar-21 13:42 32.962614 -124.999500 254 56107ft 1132kts
11-Mar-21 13:43 32.877927 -125.369299 254 56200ft 1131kts
11-Mar-21 13:44 32.791972 -125.739147 254 56274ft 1131kts
11-Mar-21 13:45 32.705199 -126.107104 254 56342ft 1130kts
11-Mar-21 13:46 32.617323 -126.474576 254 56392ft 1131kts
11-Mar-21 13:47 32.528127 -126.842300 254 56440ft 1131kts
11-Mar-21 13:48 32.438473 -127.206818 254 56484ft 1130kts
11-Mar-21 13:49 32.347336 -127.572359 254 56516ft 1130kts
11-Mar-21 13:50 32.255359 -127.936308 253 56555ft 1128kts
11-Mar-21 13:51 32.162528 -128.298805 253 56593ft 1129kts
11-Mar-21 13:52 32.068479 -128.661276 253 56619ft 1130kts
11-Mar-21 13:53 31.973164 -129.023869 253 56661ft 1130kts
11-Mar-21 13:54 31.877114 -129.384606 253 56693ft 1130kts
11-Mar-21 13:55 31.780045 -129.744585 252 56719ft 1131kts
11-Mar-21 13:56 31.681768 -130.104540 252 56756ft 1131kts
11-Mar-21 13:57 31.582492 -130.463678 252 56782ft 1131kts
11-Mar-21 13:58 31.482366 -130.821506 252 56813ft 1131kts
11-Mar-21 13:59 31.380838 -131.180014 252 56849ft 1131kts
11-Mar-21 14:00 31.278467 -131.537218 252 56876ft 1132kts
11-Mar-21 14:01 31.174928 -131.894252 251 56916ft 1133kts
11-Mar-21 14:02 31.070624 -132.249662 251 56958ft 1133kts
11-Mar-21 14:03 30.961233 -132.617886 251 56991ft 1132kts
11-Mar-21 14:04 30.854950 -132.971498 251 57032ft 1133kts
11-Mar-21 14:05 30.747321 -133.325595 251 57063ft 1133kts
11-Mar-21 14:06 30.638894 -133.678383 250 57087ft 1133kts
11-Mar-21 14:07 30.529338 -134.030926 250 57128ft 1133kts
11-Mar-21 14:08 30.419206 -134.381535 250 57155ft 1133kts
11-Mar-21 14:09 30.307872 -134.732163 250 57175ft 1134kts
11-Mar-21 14:10 30.195328 -135.082859 250 57210ft 1135kts
11-Mar-21 14:11 30.081546 -135.433695 250 57236ft 1135kts
11-Mar-21 14:12 29.967266 -135.782386 249 57265ft 1135kts
11-Mar-21 14:12 29.871185 -136.072798 249 57295ft 1135kts
11-Mar-21 14:13 29.755051 -136.420660 249 57315ft 1135kts
11-Mar-21 14:15 29.618749 -136.824409 249 57343ft 1134kts
11-Mar-21 14:15 29.520695 -137.111948 249 57373ft 1134kts
11-Mar-21 14:17 29.381897 -137.514970 249 57412ft 1134kts
11-Mar-21 14:17 29.282387 -137.801087 248 57441ft 1135kts
11-Mar-21 14:18 29.161710 -138.145019 248 57472ft 1135kts
11-Mar-21 14:20 29.019903 -138.545004 248 57501ft 1135kts
11-Mar-21 14:20 28.918062 -138.829518 248 57529ft 1135kts
11-Mar-21 14:21 28.794983 -139.170452 248 57562ft 1135kts
11-Mar-21 14:22 28.670878 -139.510793 248 57590ft 1136kts
11-Mar-21 14:23 28.545750 -139.850187 247 57625ft 1136kts
11-Mar-21 14:24 28.419983 -140.188204 247 57660ft 1135kts
11-Mar-21 14:25 28.293030 -140.526369 247 57686ft 1136kts
11-Mar-21 14:26 28.164944 -140.864488 247 57720ft 1137kts
11-Mar-21 14:27 28.036426 -141.200787 247 57764ft 1138kts
11-Mar-21 14:28 27.906052 -141.538966 247 57807ft 1139kts
11-Mar-21 14:29 27.775785 -141.873934 246 57850ft 1139kts
11-Mar-21 14:30 27.644290 -142.209162 246 57891ft 1139kts
11-Mar-21 14:31 27.512044 -142.543458 246 57924ft 1140kts
11-Mar-21 14:32 27.379454 -142.875822 246 57962ft 1140kts
11-Mar-21 14:33 27.245522 -143.208752 246 58001ft 1141kts
11-Mar-21 14:34 27.110899 -143.540628 246 58037ft 1141kts
11-Mar-21 14:35 26.975309 -143.872213 245 58075ft 1141kts
11-Mar-21 14:36 26.838672 -144.203630 245 58112ft 1142kts
11-Mar-21 14:37 26.701522 -144.533626 245 58146ft 1142kts
11-Mar-21 14:38 26.562782 -144.864804 245 58183ft 1142kts
11-Mar-21 14:39 26.424157 -145.193103 245 58220ft 1141kts
11-Mar-21 14:40 26.284586 -145.521073 244 58253ft 1141kts
11-Mar-21 14:41 26.144529 -145.847637 244 58287ft 1141kts
11-Mar-21 14:42 26.003742 -146.173415 244 58321ft 1141kts
11-Mar-21 14:43 25.862197 -146.499023 244 58400ft 1141kts
11-Mar-21 14:44 25.720237 -146.823015 243 58479ft 1143kts
11-Mar-21 14:45 25.577149 -147.147262 243 58498ft 1143kts
11-Mar-21 14:46 25.433494 -147.470409 243 58519ft 1143kts
11-Mar-21 14:47 25.289082 -147.792897 243 58545ft 1143kts
11-Mar-21 14:48 25.143650 -148.115328 243 58575ft 1145kts
11-Mar-21 14:49 24.997512 -148.437012 243 58605ft 1146kts
11-Mar-21 14:50 24.850625 -148.758045 243 58639ft 1147kts
11-Mar-21 14:51 24.702830 -149.078819 243 58676ft 1147kts
11-Mar-21 14:52 24.554724 -149.398013 243 58713ft 1148kts
11-Mar-21 14:53 24.405025 -149.718438 242 58749ft 1149kts
11-Mar-21 14:54 24.255292 -150.036757 242 58792ft 1150kts
11-Mar-21 14:55 24.104903 -150.354294 242 58825ft 1149kts
11-Mar-21 14:56 23.953251 -150.672363 242 58860ft 1149kts
11-Mar-21 14:57 23.801693 -150.988119 242 58897ft 1149kts
11-Mar-21 14:58 23.649062 -151.304030 242 58936ft 1148kts
11-Mar-21 14:59 23.495841 -151.619113 242 58974ft 1148kts
11-Mar-21 15:00 23.342293 -151.932837 241 59012ft 1148kts
11-Mar-21 15:01 23.188306 -152.245462 241 59050ft 1149kts
11-Mar-21 15:02 23.032965 -152.558825 241 59090ft 1150kts
11-Mar-21 15:03 22.876133 -152.870513 241 59127ft 1150kts
11-Mar-21 15:04 22.718706 -153.181335 241 59166ft 1150kts
11-Mar-21 15:05 22.562533 -153.487829 241 59563ft 1097kts
11-Mar-21 15:06 22.418658 -153.768569 240 59363ft 992kts
11-Mar-21 15:07 22.270437 -154.008567 233 57986ft 902kts
11-Mar-21 15:08 22.122996 -154.221461 233 52709ft 826kts
11-Mar-21 15:09 21.989343 -154.413428 234 47447ft 742kts
11-Mar-21 15:10 21.868559 -154.586505 236 42513ft 677kts
11-Mar-21 15:11 21.757868 -154.744743 235 38233ft 619kts
11-Mar-21 15:12 21.657709 -154.887412 234 33544ft 556kts
11-Mar-21 15:13 21.566200 -155.017326 233 30154ft 517kts
11-Mar-21 15:14 21.477387 -155.143193 233 27672ft 506kts
11-Mar-21 15:15 21.390746 -155.265691 233 25524ft 497kts
11-Mar-21 15:16 21.305329 -155.386199 233 23395ft 489kts
11-Mar-21 15:17 21.221569 -155.504128 233 21574ft 476kts
11-Mar-21 15:18 21.140013 -155.618705 233 19877ft 463kts
11-Mar-21 15:19 21.062098 -155.727923 232 16520ft 440kts
11-Mar-21 15:20 20.987497 -155.832267 232 12775ft 419kts
11-Mar-21 15:21 20.917085 -155.930663 232 9938ft 369kts
11-Mar-21 15:22 20.857441 -155.992683 189 10173ft 293kts
11-Mar-21 15:23 20.775099 -156.003066 186 9938ft 252kts
11-Mar-21 15:24 20.704530 -156.009078 185 10032ft 250kts
11-Mar-21 15:25 20.633103 -156.014526 185 10030ft 250kts
11-Mar-21 15:26 20.561385 -156.018937 180 10033ft 251kts
11-Mar-21 15:27 20.489641 -156.018449 181 10030ft 251kts
11-Mar-21 15:28 20.416689 -156.017928 180 8377ft 250kts
11-Mar-21 15:29 20.347099 -156.017256 180 4068ft 234kts
11-Mar-21 15:30 20.279804 -156.016691 178 5813ft 244kts
11-Mar-21 15:31 20.209906 -156.015958 178 6018ft 243kts
11-Mar-21 15:32 20.140374 -156.015107 178 6013ft 243kts
11-Mar-21 15:33 20.070827 -156.013083 186 6053ft 243kts
11-Mar-21 15:34 20.005416 -156.021035 185 5172ft 217kts
11-Mar-21 15:35 19.943410 -156.027124 185 3902ft 216kts
11-Mar-21 15:36 19.882377 -156.032715 185 2657ft 212kts
11-Mar-21 15:37 19.822721 -156.038096 186 1465ft 206kts
11-Mar-21 15:38 19.764948 -156.043259 186 336ft 199kts
11-Mar-21 15:39 19.726761 -156.045475 139 70ft 12kts
11-Mar-21 15:40 19.726611 -156.044417 57 70ft 6kts
11-Mar-21 15:41 19.730444 -156.043837 4 70ft 16kts
11-Mar-21 15:42 19.734675 -156.042658 48 70ft 15kts
11-Mar-21 15:43 19.735035 -156.042250 46 70ft 0kts
11-Mar-21 15:44 19.735035 -156.042250 46 70ft 0kts

Navigation Log

Ident Type
Flight plan parsing failed, navigation log unavailable